Time;durP1;ratioP1;P1;durP2;ratioP2;P2;SDS_P1;SDS_P2;PMS_P1;PMS_P2;Temp;Humidity;BMP_temperature;BMP_pressure;BME280_temperature;BME280_humidity;BME280_pressure;Samples;Min_cycle;Max_cycle;Signal;HPM_P1;HPM_P2
2022/11/02 00:00:57;;;;;;;10.55;6.82;;;;;;;22.43;45.01;95595.69;5026855;28;20436;-74
2022/11/02 00:03:22;;;;;;;10.18;6.35;;;;;;;22.05;44.79;95552.69;5041918;28;20044;-72
2022/11/02 00:05:48;;;;;;;10.35;6.60;;;;;;;22.43;44.58;95591.00;5026111;28;20113;-73
2022/11/02 00:08:13;;;;;;;10.02;6.35;;;;;;;22.37;45.07;95581.31;5060385;28;20043;-64
2022/11/02 00:10:39;;;;;;;8.93;6.60;;;;;;;22.41;44.95;95593.44;5058168;28;20039;-72
2022/11/02 00:13:04;;;;;;;11.10;6.75;;;;;;;22.29;44.65;95569.41;5060471;28;20481;-64
2022/11/02 00:15:31;;;;;;;10.27;6.55;;;;;;;22.29;44.87;95574.84;5060258;28;20836;-67
2022/11/02 00:18:04;;;;;;;10.20;6.50;;;;;;;22.39;45.20;95589.75;5026010;28;20057;-66
2022/11/02 00:20:30;;;;;;;8.27;6.00;;;;;;;22.21;44.94;95562.97;5009115;28;20052;-67
2022/11/02 00:22:56;;;;;;;10.10;6.68;;;;;;;22.39;44.81;95584.31;5042038;28;20044;-66
2022/11/02 00:25:22;;;;;;;11.98;6.90;;;;;;;22.38;44.48;95587.53;5042128;28;20033;-67
2022/11/02 00:27:47;;;;;;;10.40;6.55;;;;;;;22.39;44.99;95595.19;5059553;28;20056;-72
2022/11/02 00:30:13;;;;;;;9.23;5.75;;;;;;;22.40;44.67;95590.47;5060507;28;20040;-71
2022/11/02 00:32:38;;;;;;;9.05;5.82;;;;;;;22.38;44.73;95588.25;5042065;28;20056;-71
2022/11/02 00:35:04;;;;;;;9.38;6.18;;;;;;;22.05;44.71;95571.75;5041411;28;20771;-69
2022/11/02 00:37:29;;;;;;;8.77;5.70;;;;;;;22.38;44.59;95577.38;5059469;28;20032;-71
2022/11/02 00:39:55;;;;;;;9.35;6.18;;;;;;;22.38;44.77;95584.78;5060158;28;20045;-73
2022/11/02 00:42:20;;;;;;;9.23;6.30;;;;;;;22.06;44.74;95535.16;5060070;28;20052;-64
2022/11/02 00:44:46;;;;;;;10.85;6.75;;;;;;;22.37;44.68;95578.59;5032855;28;20466;-69
2022/11/02 00:47:11;;;;;;;9.30;6.40;;;;;;;22.37;44.67;95578.59;5039043;28;20059;-66
2022/11/02 00:49:37;;;;;;;10.55;5.93;;;;;;;22.30;44.71;95587.25;5060087;28;20123;-72
2022/11/02 00:52:03;;;;;;;9.40;6.53;;;;;;;22.27;44.76;95571.13;5035512;28;20515;-64
2022/11/02 00:54:28;;;;;;;9.57;6.00;;;;;;;21.44;44.78;95449.56;5051364;28;20045;-71
2022/11/02 00:56:54;;;;;;;10.15;5.97;;;;;;;22.34;44.78;95576.84;5036303;28;20045;-69
2022/11/02 00:59:19;;;;;;;9.25;5.72;;;;;;;22.30;44.68;95570.91;5062071;28;20036;-73
2022/11/02 01:01:46;;;;;;;10.00;6.80;;;;;;;21.67;44.99;95481.06;5045471;28;20036;-74
2022/11/02 01:04:17;;;;;;;9.70;5.93;;;;;;;22.32;45.01;95575.88;5057822;28;20029;-70
2022/11/02 01:06:42;;;;;;;10.88;6.70;;;;;;;22.27;44.98;95571.88;5051371;28;20135;-63
2022/11/02 01:09:09;;;;;;;10.57;6.22;;;;;;;22.07;45.08;95582.88;5063484;28;20477;-67
2022/11/02 01:11:34;;;;;;;9.63;6.22;;;;;;;22.32;44.83;95584.75;5045623;28;20037;-67
2022/11/02 01:13:59;;;;;;;10.00;6.13;;;;;;;22.05;44.81;95558.16;5059366;28;20126;-66
2022/11/02 01:16:25;;;;;;;9.13;5.93;;;;;;;22.32;44.79;95592.94;5054591;28;20025;-71
2022/11/02 01:18:54;;;;;;;8.55;5.72;;;;;;;22.29;44.88;95591.19;5033210;28;20560;-63
2022/11/02 01:21:20;;;;;;;8.02;5.75;;;;;;;22.28;44.80;95592.41;5043970;28;20075;-68
2022/11/02 01:23:45;;;;;;;10.20;5.75;;;;;;;22.29;44.96;95585.75;5061986;28;20041;-59
2022/11/02 01:26:11;;;;;;;8.52;5.93;;;;;;;22.30;44.78;95609.00;5061404;28;20577;-72
2022/11/02 01:28:36;;;;;;;8.80;5.75;;;;;;;21.98;44.70;95533.38;5059140;28;20032;-64
2022/11/02 01:31:02;;;;;;;7.85;6.00;;;;;;;22.18;45.10;95574.03;5060937;28;20086;-71
2022/11/02 01:33:27;;;;;;;8.32;5.85;;;;;;;22.29;44.98;95580.28;5043014;28;20597;-67
2022/11/02 01:35:53;;;;;;;9.68;6.05;;;;;;;22.13;44.71;95551.00;5010820;28;20137;-70
2022/11/02 01:38:19;;;;;;;8.43;5.78;;;;;;;22.28;44.80;95573.34;5019113;28;20048;-69
2022/11/02 01:40:45;;;;;;;9.38;5.40;;;;;;;22.24;45.10;95569.38;5042624;28;20028;-69
2022/11/02 01:43:21;;;;;;;8.20;5.88;;;;;;;22.28;44.86;95567.91;5063603;28;20346;-69
2022/11/02 01:45:46;;;;;;;10.70;6.45;;;;;;;21.35;45.02;95422.56;5044646;28;20107;-66
2022/11/02 01:48:12;;;;;;;9.32;6.32;;;;;;;22.23;45.06;95555.03;5023834;28;20041;-71
2022/11/02 01:50:37;;;;;;;7.95;5.57;;;;;;;22.17;44.64;95565.13;5044772;28;20421;-71
2022/11/02 01:53:03;;;;;;;8.40;5.53;;;;;;;22.25;44.72;95563.44;5044115;28;20032;-66
2022/11/02 01:55:29;;;;;;;7.50;5.38;;;;;;;22.26;44.89;95559.50;5034916;28;20040;-68
2022/11/02 01:57:59;;;;;;;8.43;5.38;;;;;;;22.17;44.90;95551.53;5038453;28;20052;-64
2022/11/02 02:00:25;;;;;;;10.02;5.68;;;;;;;22.27;44.88;95555.56;5044462;28;20493;-67
2022/11/02 02:02:55;;;;;;;7.72;5.35;;;;;;;21.67;44.93;95472.91;5043954;28;20055;-71
2022/11/02 02:05:21;;;;;;;6.97;5.45;;;;;;;22.21;44.73;95551.31;5023677;28;20052;-59
2022/11/02 02:07:47;;;;;;;8.15;5.70;;;;;;;22.25;45.01;95552.56;5043057;28;20158;-71
2022/11/02 02:10:12;;;;;;;8.95;5.78;;;;;;;21.96;44.64;95525.72;5030770;28;20032;-62
2022/11/02 02:12:38;;;;;;;7.70;5.53;;;;;;;22.25;44.84;95558.00;5033968;28;20032;-72
2022/11/02 02:15:04;;;;;;;8.85;5.50;;;;;;;22.14;44.85;95562.66;5025930;28;20076;-70
2022/11/02 02:17:39;;;;;;;8.32;5.40;;;;;;;22.24;44.83;95551.09;5044143;28;20199;-69
2022/11/02 02:20:05;;;;;;;9.35;5.50;;;;;;;21.60;44.80;95470.69;5057682;28;20225;-67
2022/11/02 02:23:06;;;;;;;8.13;5.55;;;;;;;22.21;44.66;95546.63;5057898;28;20024;-70
2022/11/02 02:25:56;;;;;;;7.60;5.25;;;;;;;22.23;44.89;95546.88;5041417;28;20273;-66
2022/11/02 02:28:36;;;;;;;9.43;5.57;;;;;;;22.22;45.09;95569.88;5058206;28;20064;-63
2022/11/02 02:31:27;;;;;;;8.98;5.35;;;;;;;22.22;45.01;95541.94;5059437;28;20044;-70
2022/11/02 02:34:19;;;;;;;7.43;5.05;;;;;;;22.20;44.97;95542.38;5026064;28;20040;-69
2022/11/02 02:37:00;;;;;;;7.65;5.20;;;;;;;21.29;44.68;95413.66;5004548;28;20056;-70
2022/11/02 02:39:42;;;;;;;9.90;5.30;;;;;;;22.10;44.67;95535.66;5039328;28;20048;-69
2022/11/02 02:42:31;;;;;;;6.72;4.97;;;;;;;22.21;44.78;95546.63;5026831;28;20489;-64
2022/11/02 02:45:33;;;;;;;8.07;5.18;;;;;;;22.21;44.68;95541.19;5048502;28;20060;-67
2022/11/02 02:48:08;;;;;;;8.07;5.40;;;;;;;22.22;44.72;95558.25;5050011;28;20166;-67
2022/11/02 02:50:54;;;;;;;8.63;5.28;;;;;;;22.20;44.73;95550.56;5043633;28;20044;-72
2022/11/02 02:53:28;;;;;;;7.43;5.13;;;;;;;22.19;44.78;95549.06;5042975;28;20036;-66
2022/11/02 02:55:53;;;;;;;8.18;5.15;;;;;;;22.08;44.80;95532.69;5036326;28;20078;-72
2022/11/02 02:58:21;;;;;;;8.15;5.18;;;;;;;21.96;44.92;95520.28;5044109;28;20460;-69
2022/11/02 03:00:47;;;;;;;8.48;5.00;;;;;;;22.19;44.81;95548.31;5043993;28;20059;-71
2022/11/02 03:03:19;;;;;;;8.30;5.57;;;;;;;22.06;44.86;95535.16;5043305;28;20049;-63
2022/11/02 03:06:00;;;;;;;7.53;5.38;;;;;;;22.17;44.69;95556.22;5033896;28;20036;-67
2022/11/02 03:08:26;;;;;;;6.88;4.75;;;;;;;22.16;44.80;95560.91;5026999;28;20041;-71
2022/11/02 03:11:10;;;;;;;7.80;5.00;;;;;;;22.17;44.92;95548.81;5046187;28;20036;-66
2022/11/02 03:13:51;;;;;;;7.70;5.05;;;;;;;21.47;44.75;95443.91;5061511;28;20068;-71
2022/11/02 03:16:44;;;;;;;7.80;4.75;;;;;;;22.17;44.73;95559.69;5030773;28;20068;-63
2022/11/02 03:19:10;;;;;;;6.75;4.85;;;;;;;22.15;44.78;95561.41;5055737;28;20492;-68
2022/11/02 03:21:44;;;;;;;8.40;5.35;;;;;;;22.11;44.86;95548.03;5061032;28;20071;-66
2022/11/02 03:24:13;;;;;;;7.53;5.15;;;;;;;22.17;44.85;95562.41;5058466;28;20040;-66
2022/11/02 03:26:52;;;;;;;7.75;4.90;;;;;;;22.15;45.22;95578.47;5051444;28;20542;-60
2022/11/02 03:29:21;;;;;;;7.30;4.90;;;;;;;21.84;44.94;95514.50;5042577;28;20071;-64
2022/11/02 03:31:57;;;;;;;7.55;5.18;;;;;;;22.16;44.82;95550.03;5019867;28;20035;-64
2022/11/02 03:34:44;;;;;;;6.32;4.90;;;;;;;22.15;45.00;95559.44;5054889;28;20212;-71
2022/11/02 03:37:25;;;;;;;7.22;4.93;;;;;;;22.13;44.92;95583.63;5024914;28;20084;-68
2022/11/02 03:39:53;;;;;;;8.32;5.25;;;;;;;22.13;44.78;95556.44;5004296;28;20084;-64
2022/11/02 03:42:21;;;;;;;7.55;5.47;;;;;;;22.10;44.92;95549.25;5027824;28;20395;-59
2022/11/02 03:44:48;;;;;;;5.85;4.65;;;;;;;21.99;45.19;95543.78;5040175;28;20112;-65
2022/11/02 03:47:14;;;;;;;7.43;5.13;;;;;;;22.13;44.99;95550.28;5018770;28;20037;-65
2022/11/02 03:49:40;;;;;;;7.00;4.70;;;;;;;22.09;44.86;95572.28;5064933;28;20036;-66
2022/11/02 03:52:08;;;;;;;8.80;5.15;;;;;;;22.13;45.17;95550.28;5046942;28;20052;-70
2022/11/02 03:54:41;;;;;;;7.38;4.93;;;;;;;22.12;44.92;95548.78;5025172;28;20047;-71
2022/11/02 03:57:06;;;;;;;8.02;4.85;;;;;;;21.88;44.71;95513.06;5058762;28;20063;-62
2022/11/02 03:59:32;;;;;;;6.90;4.68;;;;;;;22.09;44.66;95550.50;5043773;28;20425;-70
2022/11/02 04:01:57;;;;;;;7.13;4.70;;;;;;;22.11;45.28;95558.19;5042416;28;20044;-71
2022/11/02 04:04:23;;;;;;;8.48;5.10;;;;;;;22.11;45.03;95548.03;5023779;28;20033;-70
2022/11/02 04:06:48;;;;;;;6.88;4.90;;;;;;;22.09;44.64;95544.31;5041161;28;20060;-69
2022/11/02 04:09:14;;;;;;;7.43;5.03;;;;;;;22.10;44.78;95546.53;5050731;28;20036;-67
2022/11/02 04:14:38;;;;;;;7.55;5.15;;;;;;;22.09;44.79;95545.06;5030434;28;20122;-69
2022/11/02 04:19:52;;;;;;;6.75;4.50;;;;;;;22.08;44.83;95549.00;5060538;28;20056;-66
2022/11/02 04:25:17;;;;;;;7.68;4.88;;;;;;;22.08;45.03;95546.28;5049772;28;20138;-68
2022/11/02 04:27:48;;;;;;;7.32;4.80;;;;;;;22.09;44.85;95566.81;5032977;28;20045;-62
2022/11/02 04:30:14;;;;;;;6.95;4.78;;;;;;;22.09;44.82;95561.38;5060494;28;20131;-70
2022/11/02 04:35:25;;;;;;;5.85;4.55;;;;;;;22.06;44.85;95551.47;5050542;28;20060;-69
2022/11/02 04:40:35;;;;;;;6.90;4.55;;;;;;;22.06;44.77;95550.72;5041160;28;20051;-62
2022/11/02 04:43:00;;;;;;;7.70;4.80;;;;;;;21.95;44.89;95540.53;5045055;28;20048;-69
2022/11/02 04:45:25;;;;;;;6.43;4.50;;;;;;;22.06;44.89;95556.91;5049062;28;20045;-72
2022/11/02 04:47:51;;;;;;;6.25;4.85;;;;;;;22.05;44.92;95577.19;5039467;28;20099;-67
2022/11/02 04:50:16;;;;;;;8.48;4.63;;;;;;;22.06;44.91;95556.91;5028528;28;20052;-67
2022/11/02 04:52:42;;;;;;;7.82;5.40;;;;;;;22.12;44.65;95554.22;5018645;28;20033;-69
2022/11/02 04:55:07;;;;;;;7.18;5.25;;;;;;;22.11;44.69;95558.91;5005850;28;20034;-70
2022/11/02 04:57:33;;;;;;;7.30;5.15;;;;;;;22.13;44.75;95551.00;5039284;28;20051;-67
2022/11/02 04:59:58;;;;;;;9.88;5.43;;;;;;;22.24;44.62;95553.81;5049491;28;20087;-72
2022/11/02 05:02:24;;;;;;;7.22;4.60;;;;;;;21.48;44.59;95436.53;5018708;28;20140;-64
2022/11/02 05:04:49;;;;;;;10.13;5.00;;;;;;;22.34;44.55;95546.19;5063421;28;20493;-67
2022/11/02 05:07:15;;;;;;;7.60;4.82;;;;;;;22.46;44.45;95556.59;5048938;28;20045;-60
2022/11/02 05:09:43;;;;;;;7.75;4.50;;;;;;;22.21;44.92;95557.50;5026983;28;20367;-76
2022/11/02 05:12:08;;;;;;;6.90;4.65;;;;;;;22.13;44.74;95551.00;5011274;28;20474;-72
2022/11/02 05:14:34;;;;;;;6.15;4.50;;;;;;;22.21;44.97;95568.41;4989324;28;20056;-75
2022/11/02 05:16:59;;;;;;;8.07;4.95;;;;;;;22.21;45.13;95573.84;5026390;28;20053;-69
2022/11/02 05:19:25;;;;;;;8.75;5.45;;;;;;;22.18;45.13;95569.34;5028111;28;20048;-67
2022/11/02 05:21:50;;;;;;;6.65;4.20;;;;;;;22.23;44.92;95565.94;5018032;28;20055;-74
2022/11/02 05:24:15;;;;;;;8.25;4.60;;;;;;;22.32;45.08;95552.13;5038274;28;20048;-66
2022/11/02 05:26:41;;;;;;;8.38;4.50;;;;;;;22.30;45.26;95576.34;5021172;28;20639;-65
2022/11/02 05:29:06;;;;;;;7.25;4.82;;;;;;;22.28;45.22;95583.50;5021544;28;20451;-68
2022/11/02 05:31:32;;;;;;;8.63;5.00;;;;;;;22.41;44.97;95585.28;5024759;28;20049;-68
2022/11/02 05:33:57;;;;;;;8.18;5.05;;;;;;;22.28;45.14;95588.94;5027408;28;20202;-66
2022/11/02 05:36:23;;;;;;;7.75;5.05;;;;;;;22.35;45.08;95583.78;5018458;28;20427;-67
2022/11/02 05:38:52;;;;;;;7.07;4.60;;;;;;;22.36;45.08;95601.63;5032133;28;20429;-69
2022/11/02 05:41:18;;;;;;;9.75;4.82;;;;;;;22.38;45.05;95582.81;5050007;28;20426;-71
2022/11/02 05:43:43;;;;;;;7.63;5.18;;;;;;;22.42;44.93;95588.78;5061615;28;20036;-73
2022/11/02 05:46:09;;;;;;;7.45;5.07;;;;;;;22.46;45.04;95594.72;5062615;28;20043;-74
2022/11/02 05:48:34;;;;;;;8.13;4.85;;;;;;;22.46;45.16;95595.44;5044635;28;20056;-65
2022/11/02 05:51:02;;;;;;;7.10;4.95;;;;;;;22.61;44.82;95597.97;5026730;28;20059;-70
2022/11/02 05:53:30;;;;;;;8.38;5.28;;;;;;;21.83;44.77;95494.00;5040509;28;20110;-78
2022/11/02 05:55:56;;;;;;;6.85;4.60;;;;;;;22.46;44.83;95600.88;5042423;28;20099;-73
2022/11/02 05:58:23;;;;;;;7.38;4.90;;;;;;;22.57;44.60;95613.78;5043014;28;20028;-74
2022/11/02 06:00:48;;;;;;;8.20;4.85;;;;;;;22.83;44.34;95614.41;5057771;28;20098;-78
2022/11/02 06:03:14;;;;;;;6.93;5.15;;;;;;;22.66;44.52;95619.03;5062130;28;20480;-68
2022/11/02 06:05:39;;;;;;;7.80;4.90;;;;;;;22.63;44.21;95615.31;5062486;28;20071;-68
2022/11/02 06:08:05;;;;;;;7.47;4.95;;;;;;;21.72;44.35;95478.38;5061717;28;20101;-63
2022/11/02 06:10:30;;;;;;;9.50;5.05;;;;;;;22.67;44.10;95609.63;5060371;28;20130;-74
2022/11/02 06:12:59;;;;;;;7.78;5.03;;;;;;;22.63;44.34;95609.88;5061026;28;20040;-67
2022/11/02 06:15:25;;;;;;;8.63;4.60;;;;;;;22.73;43.95;95624.75;5043600;28;20151;-69
2022/11/02 06:17:51;;;;;;;10.50;5.75;;;;;;;22.78;44.10;95615.09;5051235;28;20510;-65
2022/11/02 06:20:16;;;;;;;8.43;5.10;;;;;;;22.84;43.88;95613.16;5037326;28;20041;-69
2022/11/02 06:22:42;;;;;;;12.60;6.90;;;;;;;22.39;41.17;95485.59;5042546;28;20044;-62
2022/11/02 06:25:08;;;;;;;13.65;7.45;;;;;;;23.25;41.01;95643.00;5061338;28;20445;-69
2022/11/02 06:27:33;;;;;;;11.88;7.53;;;;;;;23.22;40.29;95624.91;5059133;28;20032;-68
2022/11/02 06:29:59;;;;;;;15.23;8.23;;;;;;;22.93;40.38;95598.13;5057291;28;20048;-63
2022/11/02 06:32:24;;;;;;;13.85;8.60;;;;;;;22.94;40.11;95591.44;5059079;28;20048;-68
2022/11/02 06:34:49;;;;;;;14.02;8.13;;;;;;;23.34;39.79;95617.50;5042867;28;20534;-66
2022/11/02 06:37:15;;;;;;;15.88;8.63;;;;;;;23.13;40.02;95633.31;5062580;28;20652;-64
2022/11/02 06:39:40;;;;;;;16.33;8.70;;;;;;;23.09;39.86;95624.66;5043346;28;20813;-64
2022/11/02 06:42:06;;;;;;;18.35;9.38;;;;;;;23.18;40.10;95621.66;5037171;28;20081;-67
2022/11/02 06:44:31;;;;;;;17.00;9.40;;;;;;;23.22;39.33;95633.09;5041775;28;20107;-69
2022/11/02 06:46:57;;;;;;;19.55;9.88;;;;;;;23.21;39.45;95615.22;5036189;28;20302;-68
2022/11/02 06:49:22;;;;;;;17.98;9.70;;;;;;;23.36;38.86;95634.81;5040091;28;20504;-69
2022/11/02 06:51:51;;;;;;;18.27;9.55;;;;;;;23.37;38.95;95623.44;5039629;28;20474;-67
2022/11/02 06:54:16;;;;;;;17.58;9.52;;;;;;;23.02;39.35;95597.88;5039149;28;20052;-68
2022/11/02 06:56:42;;;;;;;19.15;10.43;;;;;;;22.42;38.92;95485.38;5039251;28;20049;-62
2022/11/02 06:59:07;;;;;;;18.88;11.18;;;;;;;23.31;39.31;95621.94;5021460;28;20045;-70
2022/11/02 07:01:33;;;;;;;23.05;10.95;;;;;;;23.38;38.51;95618.75;5039317;28;20044;-64
2022/11/02 07:04:00;;;;;;;21.90;10.55;;;;;;;23.48;38.39;95614.53;5026593;28;20025;-68
2022/11/02 07:06:25;;;;;;;19.90;11.05;;;;;;;23.37;38.94;95614.53;5038653;28;20517;-65
2022/11/02 07:08:51;;;;;;;18.50;11.18;;;;;;;23.40;38.49;95617.00;5040580;28;20047;-65
2022/11/02 07:11:16;;;;;;;20.02;11.30;;;;;;;23.35;39.08;95608.06;5023127;28;20528;-73
2022/11/02 07:13:42;;;;;;;17.77;11.10;;;;;;;22.35;38.38;95453.19;5040318;28;20098;-60
2022/11/02 07:16:07;;;;;;;19.95;11.80;;;;;;;23.39;38.75;95620.22;5040208;28;20021;-67
2022/11/02 07:18:32;;;;;;;19.30;10.98;;;;;;;23.33;38.53;95603.09;5039359;28;20048;-62
2022/11/02 07:20:58;;;;;;;22.33;12.15;;;;;;;23.52;38.21;95623.22;5019007;28;20040;-68
2022/11/02 07:23:24;;;;;;;22.08;11.85;;;;;;;22.49;38.53;95468.53;5011558;28;20128;-71
2022/11/02 07:25:49;;;;;;;21.52;12.45;;;;;;;23.52;38.46;95615.75;5036998;28;20025;-66
2022/11/02 07:28:14;;;;;;;21.58;12.13;;;;;;;23.32;38.26;95609.81;5041191;28;20037;-68
2022/11/02 07:30:40;;;;;;;21.17;12.63;;;;;;;23.32;38.55;95603.59;5038845;28;20517;-69
2022/11/02 07:33:05;;;;;;;20.35;12.95;;;;;;;23.21;38.52;95577.09;5040189;28;20536;-70
2022/11/02 07:35:33;;;;;;;23.08;12.98;;;;;;;23.55;37.98;95614.03;5039407;28;20061;-65
2022/11/02 07:37:59;;;;;;;22.92;12.98;;;;;;;23.44;38.38;95595.69;5035726;28;20041;-72
2022/11/02 07:40:25;;;;;;;23.33;13.27;;;;;;;23.58;38.39;95599.41;5014949;28;20041;-71
2022/11/02 07:42:52;;;;;;;23.35;11.85;;;;;;;23.59;37.98;95611.81;5053175;28;20493;-64
2022/11/02 07:45:19;;;;;;;26.05;12.88;;;;;;;23.59;38.36;95606.38;5029964;28;20052;-66
2022/11/02 07:47:45;;;;;;;22.52;13.10;;;;;;;23.43;37.99;95593.47;5027963;28;20044;-69
2022/11/02 07:50:11;;;;;;;21.02;12.68;;;;;;;23.55;38.38;95600.41;5063535;28;20040;-67
2022/11/02 07:52:53;;;;;;;22.25;12.57;;;;;;;22.97;38.21;95508.75;5064169;28;20032;-59
2022/11/02 07:55:20;;;;;;;21.35;13.18;;;;;;;23.58;37.81;95607.59;5046037;28;20100;-62
2022/11/02 07:58:02;;;;;;;22.83;12.23;;;;;;;23.66;37.87;95612.09;5060733;28;20040;-70
2022/11/02 08:00:29;;;;;;;21.90;12.13;;;;;;;23.45;37.85;95580.84;5060495;28;20135;-72
2022/11/02 08:02:55;;;;;;;20.45;12.40;;;;;;;22.77;37.82;95472.06;5059639;28;20036;-66
2022/11/02 08:05:21;;;;;;;20.73;12.10;;;;;;;23.59;38.24;95598.19;5042485;28;20040;-70
2022/11/02 08:07:47;;;;;;;26.67;13.40;;;;;;;23.44;38.59;95594.97;5044908;28;20149;-62
2022/11/02 08:10:13;;;;;;;22.40;13.13;;;;;;;23.10;37.95;95500.81;5055198;28;20478;-67
2022/11/02 08:12:38;;;;;;;21.85;12.98;;;;;;;23.57;37.98;95595.19;5064374;28;20114;-73
2022/11/02 08:15:04;;;;;;;20.80;12.23;;;;;;;23.50;38.30;95560.25;5064428;28;20741;-67
2022/11/02 08:17:30;;;;;;;20.33;12.73;;;;;;;22.70;38.29;95448.03;5063972;28;20052;-65
2022/11/02 08:19:55;;;;;;;24.15;12.57;;;;;;;23.61;38.21;95576.59;5064121;28;20109;-71
2022/11/02 08:22:21;;;;;;;21.00;12.48;;;;;;;22.98;37.66;95482.97;5064461;28;20483;-73
2022/11/02 08:24:46;;;;;;;25.38;12.57;;;;;;;23.53;37.79;95575.63;5045416;28;20044;-70
2022/11/02 08:27:11;;;;;;;19.75;12.35;;;;;;;23.06;38.66;95522.13;5063895;28;20052;-67
2022/11/02 08:29:37;;;;;;;20.70;12.25;;;;;;;23.64;37.86;95567.47;5029511;28;20041;-62
2022/11/02 08:32:02;;;;;;;23.67;13.13;;;;;;;23.48;37.95;95562.72;5064392;28;20036;-71
2022/11/02 08:34:28;;;;;;;23.73;12.80;;;;;;;23.52;38.17;95574.13;5047826;28;20520;-73
2022/11/02 08:36:53;;;;;;;19.80;12.15;;;;;;;23.26;38.44;95568.19;5063431;28;20447;-70
2022/11/02 08:39:19;;;;;;;23.80;12.90;;;;;;;23.25;38.21;95544.91;5039558;28;20592;-73
2022/11/02 08:41:44;;;;;;;22.92;13.20;;;;;;;23.46;38.12;95565.22;5043416;28;21034;-71
2022/11/02 08:44:10;;;;;;;21.95;12.63;;;;;;;23.44;38.23;95584.06;5067909;28;20419;-69
2022/11/02 08:46:35;;;;;;;21.98;12.43;;;;;;;22.48;38.33;95423.50;5040549;28;20028;-65
2022/11/02 08:49:01;;;;;;;21.00;12.80;;;;;;;23.41;38.27;95530.53;5067899;28;20037;-71
2022/11/02 08:51:26;;;;;;;23.75;12.23;;;;;;;23.39;38.58;95554.81;5049003;28;20052;-73
2022/11/02 08:53:51;;;;;;;20.67;12.45;;;;;;;23.26;38.80;95546.41;5049662;28;20051;-65
2022/11/02 08:56:17;;;;;;;25.17;12.75;;;;;;;23.59;37.73;95547.13;5069460;28;20416;-63
2022/11/02 08:58:42;;;;;;;20.02;12.25;;;;;;;23.62;37.88;95545.38;5035427;28;20028;-72
2022/11/02 09:01:08;;;;;;;19.65;12.52;;;;;;;22.85;37.92;95430.22;5066211;28;20051;-65
2022/11/02 09:03:33;;;;;;;21.05;12.52;;;;;;;22.64;37.90;95403.72;5064490;28;20673;-70
2022/11/02 09:06:00;;;;;;;23.10;12.98;;;;;;;23.69;38.05;95539.44;5046275;28;20677;-68
2022/11/02 09:08:26;;;;;;;22.52;13.15;;;;;;;23.67;37.69;95531.03;5059556;28;20132;-70
2022/11/02 09:10:51;;;;;;;21.73;11.95;;;;;;;23.86;37.96;95542.91;5046391;28;20040;-65
2022/11/02 09:13:19;;;;;;;23.25;12.73;;;;;;;23.72;37.18;95516.63;5064606;28;20044;-69
2022/11/02 09:15:48;;;;;;;19.40;12.57;;;;;;;23.84;37.50;95539.91;5063061;28;20044;-70
2022/11/02 09:18:14;;;;;;;21.30;12.15;;;;;;;23.68;38.19;95537.97;5044948;28;20072;-72
2022/11/02 09:20:39;;;;;;;20.83;12.90;;;;;;;23.82;37.58;95520.56;5062564;28;20056;-68
2022/11/02 09:23:05;;;;;;;19.45;12.70;;;;;;;23.82;37.41;95526.03;5062433;28;20044;-66
2022/11/02 09:25:30;;;;;;;19.50;12.30;;;;;;;23.85;38.26;95514.13;5062874;28;20040;-67
2022/11/02 09:27:56;;;;;;;23.73;12.82;;;;;;;22.68;37.13;95317.13;5044787;28;20055;-67
2022/11/02 09:30:22;;;;;;;22.95;12.57;;;;;;;23.91;37.18;95513.59;5028292;28;20052;-58
2022/11/02 09:32:54;;;;;;;21.20;13.00;;;;;;;24.14;36.84;95504.09;5044854;28;20040;-61
2022/11/02 09:35:19;;;;;;;23.35;13.45;;;;;;;24.05;36.98;95528.94;5062564;28;20135;-72
2022/11/02 09:37:45;;;;;;;22.75;12.75;;;;;;;24.20;37.34;95523.16;5027804;28;20060;-68
2022/11/02 09:40:10;;;;;;;21.45;12.45;;;;;;;23.57;36.93;95404.34;5018514;28;20463;-59
2022/11/02 09:42:55;;;;;;;20.02;11.70;;;;;;;24.35;37.79;95502.56;5040755;28;20578;-60
2022/11/02 09:45:20;;;;;;;19.52;11.57;;;;;;;24.34;36.89;95506.53;5037740;28;20128;-70
2022/11/02 09:47:51;;;;;;;19.23;11.13;;;;;;;24.57;37.10;95486.03;5037379;28;20142;-61
2022/11/02 09:50:22;;;;;;;18.52;10.70;;;;;;;24.45;38.09;95479.16;5044322;28;20048;-65
2022/11/02 09:52:52;;;;;;;21.15;12.45;;;;;;;24.28;37.59;95486.66;5044755;28;20039;-68
2022/11/02 09:55:37;;;;;;;16.55;9.98;;;;;;;24.27;38.37;95474.25;5044106;28;20409;-70
2022/11/02 09:58:06;;;;;;;15.38;9.35;;;;;;;24.45;38.45;95479.16;5027996;28;20040;-72
2022/11/02 10:00:34;;;;;;;16.83;10.43;;;;;;;24.37;38.37;95468.03;5043959;28;20048;-67
2022/11/02 10:03:19;;;;;;;16.33;9.90;;;;;;;24.53;38.35;95458.28;5044348;28;20044;-69
2022/11/02 10:05:52;;;;;;;15.77;9.38;;;;;;;24.65;37.97;95470.59;5061911;28;20190;-72
2022/11/02 10:08:36;;;;;;;16.08;9.75;;;;;;;24.83;37.50;95476.94;5027739;28;20060;-70
2022/11/02 10:11:01;;;;;;;14.38;9.02;;;;;;;24.79;37.47;95458.59;5057969;28;20055;-71
2022/11/02 10:13:45;;;;;;;16.33;10.10;;;;;;;24.72;37.39;95437.28;5062529;28;20382;-63
2022/11/02 10:16:19;;;;;;;14.00;9.82;;;;;;;24.87;37.67;95455.56;5045289;28;20097;-69
2022/11/02 10:18:49;;;;;;;16.95;9.68;;;;;;;24.76;37.80;95443.97;5061288;28;20047;-68
2022/11/02 10:21:32;;;;;;;;;;;;;;;24.90;37.55;95449.06;5028462;28;20033;-70
2022/11/02 10:24:01;;;;;;;15.07;9.95;;;;;;;24.80;37.79;95432.75;5043359;28;19923;-65
2022/11/02 10:26:27;;;;;;;14.95;9.68;;;;;;;24.81;37.57;95417.84;5026697;28;20057;-69
2022/11/02 10:29:08;;;;;;;16.27;9.98;;;;;;;24.88;37.35;95446.09;5060833;28;21105;-73
2022/11/02 10:31:34;;;;;;;17.80;10.07;;;;;;;24.21;37.56;95334.38;5027316;28;20024;-62
2022/11/02 10:34:20;;;;;;;15.50;9.48;;;;;;;24.81;37.17;95396.00;5043780;28;20032;-69
2022/11/02 10:36:54;;;;;;;16.45;9.57;;;;;;;25.09;37.39;95428.06;5061545;28;20122;-71
2022/11/02 10:39:34;;;;;;;14.63;9.45;;;;;;;25.13;37.04;95422.34;5055093;28;20124;-68
2022/11/02 10:42:27;;;;;;;15.05;9.60;;;;;;;25.12;37.20;95426.31;5010049;28;20056;-67
2022/11/02 10:45:06;;;;;;;15.20;9.25;;;;;;;25.13;37.13;95428.53;5054137;28;20069;-62
2022/11/02 10:47:45;;;;;;;14.98;9.63;;;;;;;25.12;37.23;95407.19;5025147;28;20198;-65
2022/11/02 10:50:27;;;;;;;14.48;9.48;;;;;;;25.24;36.87;95412.00;5043987;28;20068;-73
2022/11/02 10:52:53;;;;;;;13.65;9.23;;;;;;;25.30;36.78;95409.25;5043126;28;20208;-73
2022/11/02 10:55:18;;;;;;;17.45;9.32;;;;;;;23.78;36.72;95168.28;5043237;28;20673;-66
2022/11/02 10:57:43;;;;;;;15.73;8.95;;;;;;;25.13;36.97;95401.19;5061419;28;20131;-71
2022/11/02 11:00:26;;;;;;;18.08;8.82;;;;;;;25.36;36.74;95402.44;5043100;28;20033;-72
2022/11/02 11:03:09;;;;;;;14.27;8.98;;;;;;;25.07;36.50;95332.19;5060640;28;20105;-65
2022/11/02 11:05:48;;;;;;;15.35;9.10;;;;;;;25.49;36.67;95399.84;5061076;28;20087;-67
2022/11/02 11:08:29;;;;;;;16.27;8.88;;;;;;;25.48;36.92;95387.41;5045244;28;20045;-73
2022/11/02 11:10:54;;;;;;;13.57;8.48;;;;;;;25.45;36.58;95393.91;5056343;28;20137;-68
2022/11/02 11:13:21;;;;;;;16.08;8.65;;;;;;;25.54;36.20;95382.63;5043589;28;20033;-70
2022/11/02 11:15:50;;;;;;;12.27;8.90;;;;;;;24.81;36.52;95248.47;5042875;28;20718;-65
2022/11/02 11:18:17;;;;;;;12.65;8.48;;;;;;;25.60;36.38;95383.31;5060506;28;20063;-64
2022/11/02 11:20:43;;;;;;;16.02;8.98;;;;;;;25.69;36.23;95377.50;5025496;28;20037;-71
2022/11/02 11:23:09;;;;;;;13.85;8.90;;;;;;;25.80;36.09;95370.66;5042927;28;20129;-68
2022/11/02 11:25:34;;;;;;;13.05;8.50;;;;;;;25.72;36.09;95365.53;5060434;28;20035;-69
2022/11/02 11:28:00;;;;;;;12.73;8.15;;;;;;;25.23;35.99;95273.88;5053415;28;20033;-65
2022/11/02 11:30:28;;;;;;;14.90;7.57;;;;;;;25.75;35.90;95356.28;5034801;28;20040;-73
2022/11/02 11:32:54;;;;;;;11.10;8.05;;;;;;;25.60;35.73;95328.59;5012261;28;20464;-69
2022/11/02 11:35:19;;;;;;;12.13;7.78;;;;;;;26.02;35.47;95358.66;5042708;28;20042;-71
2022/11/02 11:37:56;;;;;;;11.90;7.30;;;;;;;25.87;35.70;95342.69;5060554;28;20433;-62
2022/11/02 11:40:21;;;;;;;13.00;7.32;;;;;;;26.04;35.37;95354.16;5059408;28;20036;-61
2022/11/02 11:42:52;;;;;;;12.60;7.70;;;;;;;26.09;35.54;95347.84;5041480;28;20056;-67
2022/11/02 11:45:28;;;;;;;11.15;6.65;;;;;;;25.35;35.12;95242.38;5039137;28;20505;-73
2022/11/02 11:48:03;;;;;;;12.55;7.22;;;;;;;26.02;35.33;95348.47;5042553;28;20541;-72